createdAt,value
2023-03-05T00:01:38.854Z,94877.56
2023-03-05T00:04:10.376Z,94873.84
2023-03-05T00:06:37.066Z,94870.13
2023-03-05T00:09:04.711Z,94868.69
2023-03-05T00:11:33.763Z,94867.53
2023-03-05T00:14:02.078Z,94861.13
2023-03-05T00:16:29.525Z,94866.09
2023-03-05T00:18:58.134Z,94866.09
2023-03-05T00:21:29.175Z,94863.38
2023-03-05T00:23:57.237Z,94857.69
2023-03-05T00:26:26.515Z,94852.84
2023-03-05T00:28:55.241Z,94851.38
2023-03-05T00:31:25.996Z,94846.19
2023-03-05T00:33:54.136Z,94853.56
2023-03-05T00:36:21.201Z,94847.66
2023-03-05T00:38:47.912Z,94842.78
2023-03-05T00:41:14.559Z,94835.03
2023-03-05T00:43:41.143Z,94844.97
2023-03-05T00:46:08.075Z,94838.44
2023-03-05T00:48:34.781Z,94826.13
2023-03-05T00:51:01.401Z,94832.75
2023-03-05T00:53:28.032Z,94837.94
2023-03-05T00:55:54.646Z,94834.59
2023-03-05T00:58:21.675Z,94824.69
2023-03-05T01:00:50.668Z,94824.25
2023-03-05T01:03:20.321Z,94819.06
2023-03-05T01:05:47.065Z,94820.50
2023-03-05T01:08:13.666Z,94807.25
2023-03-05T01:10:40.283Z,94799.00
2023-03-05T01:13:06.873Z,94797.84
2023-03-05T01:15:33.538Z,94795.19
2023-03-05T01:18:00.160Z,94801.06
2023-03-05T01:20:26.833Z,94788.13
2023-03-05T01:22:54.061Z,94792.88
2023-03-05T01:25:20.762Z,94791.03
2023-03-05T01:27:47.555Z,94798.03
2023-03-05T01:30:15.623Z,94793.63
2023-03-05T01:32:43.212Z,94786.16
2023-03-05T01:35:16.935Z,94781.50
2023-03-05T01:37:43.528Z,94786.97
2023-03-05T01:40:12.356Z,94782.84
2023-03-05T01:42:38.959Z,94769.19
2023-03-05T01:45:10.271Z,94773.53
2023-03-05T01:47:37.274Z,94772.38
2023-03-05T01:50:09.341Z,94769.81
2023-03-05T01:52:39.244Z,94772.06
2023-03-05T01:55:11.893Z,94772.38
2023-03-05T01:57:43.743Z,94770.53
2023-03-05T02:00:14.852Z,94772.72
2023-03-05T02:02:43.691Z,94759.44
2023-03-05T02:05:14.996Z,94765.78
2023-03-05T02:07:43.087Z,94759.75
2023-03-05T02:10:20.526Z,94765.66
2023-03-05T02:12:49.240Z,94764.94
2023-03-05T02:15:17.042Z,94763.47
2023-03-05T02:17:43.901Z,94757.88
2023-03-05T02:20:17.206Z,94757.50
2023-03-05T02:22:43.874Z,94756.44
2023-03-05T02:25:29.923Z,94756.03
2023-03-05T02:28:50.465Z,94749.72
2023-03-05T02:31:20.596Z,94745.66
2023-03-05T02:33:47.902Z,94749.72
2023-03-05T02:36:15.256Z,94749.41
2023-03-05T02:38:42.847Z,94739.47
2023-03-05T02:41:09.917Z,94740.50
2023-03-05T02:43:36.526Z,94737.91
2023-03-05T02:46:03.667Z,94735.75
2023-03-05T02:48:30.527Z,94736.06
2023-03-05T02:50:58.048Z,94736.78
2023-03-05T02:53:26.351Z,94726.00
2023-03-05T02:55:52.979Z,94720.84
2023-03-05T02:58:19.561Z,94726.72
2023-03-05T03:00:47.069Z,94714.19
2023-03-05T03:03:13.817Z,94716.06
2023-03-05T03:05:41.190Z,94714.19
2023-03-05T03:08:08.190Z,94703.84
2023-03-05T03:10:34.843Z,94710.91
2023-03-05T03:13:01.481Z,94704.56
2023-03-05T03:15:28.263Z,94696.78
2023-03-05T03:17:55.351Z,94700.13
2023-03-05T03:20:22.363Z,94698.25
2023-03-05T03:22:48.954Z,94694.53
2023-03-05T03:25:17.844Z,94691.22
2023-03-05T03:27:44.486Z,94683.84
2023-03-05T03:30:13.358Z,94690.50
2023-03-05T03:32:39.966Z,94689.78
2023-03-05T03:35:07.984Z,94684.28
2023-03-05T03:37:34.744Z,94679.53
2023-03-05T03:40:05.528Z,94678.69
2023-03-05T03:42:32.534Z,94683.84
2023-03-05T03:45:00.535Z,94684.59
2023-03-05T03:47:27.187Z,94682.41
2023-03-05T03:49:55.125Z,94675.06
2023-03-05T03:52:22.995Z,94670.59
2023-03-05T03:54:52.428Z,94669.88
2023-03-05T03:57:19.398Z,94666.56
2023-03-05T03:59:46.193Z,94665.44
2023-03-05T04:02:13.187Z,94661.41
2023-03-05T04:04:39.982Z,94656.94
2023-03-05T04:07:06.600Z,94659.94
2023-03-05T04:09:33.299Z,94657.66
2023-03-05T04:11:59.870Z,94656.22
2023-03-05T04:14:27.310Z,94658.50
2023-03-05T04:16:54.087Z,94647.44
2023-03-05T04:19:21.127Z,94652.91
2023-03-05T04:21:47.692Z,94649.59
2023-03-05T04:24:14.585Z,94642.56
2023-03-05T04:26:41.139Z,94645.16
2023-03-05T04:29:07.700Z,94638.50
2023-03-05T04:31:34.437Z,94633.78
2023-03-05T04:34:01.038Z,94635.75
2023-03-05T04:36:27.685Z,94632.00
2023-03-05T04:38:54.278Z,94631.91
2023-03-05T04:41:20.824Z,94625.56
2023-03-05T04:43:47.374Z,94630.88
2023-03-05T04:46:14.080Z,94629.31
2023-03-05T04:48:40.695Z,94630.88
2023-03-05T04:51:07.307Z,94624.53
2023-03-05T04:53:34.157Z,94624.84
2023-03-05T04:56:01.647Z,94624.53
2023-03-05T04:58:28.994Z,94616.38
2023-03-05T05:01:01.081Z,94616.78
2023-03-05T05:03:27.616Z,94610.88
2023-03-05T05:05:55.898Z,94600.53
2023-03-05T05:08:23.227Z,94607.59
2023-03-05T05:11:00.845Z,94606.13
2023-03-05T05:13:28.458Z,94603.13
2023-03-05T05:15:55.673Z,94607.28
2023-03-05T05:18:22.785Z,94606.13
2023-03-05T05:20:49.595Z,94604.25
2023-03-05T05:23:16.945Z,94605.72
2023-03-05T05:25:43.610Z,94612.75
2023-03-05T05:28:11.804Z,94609.72
2023-03-05T05:30:38.675Z,94602.72
2023-03-05T05:33:05.245Z,94615.34
2023-03-05T05:35:31.961Z,94608.28
2023-03-05T05:37:58.560Z,94610.16
2023-03-05T05:40:25.125Z,94607.16
2023-03-05T05:42:51.710Z,94605.72
2023-03-05T05:45:18.407Z,94616.06
2023-03-05T05:47:45.029Z,94603.84
2023-03-05T05:50:12.552Z,94615.22
2023-03-05T05:52:39.172Z,94605.59
2023-03-05T05:55:06.476Z,94610.03
2023-03-05T05:57:34.598Z,94611.59
2023-03-05T06:00:01.384Z,94603.44
2023-03-05T06:02:28.077Z,94604.88
2023-03-05T06:04:56.199Z,94604.88
2023-03-05T06:07:24.424Z,94607.75
2023-03-05T06:09:50.987Z,94608.47
2023-03-05T06:12:17.596Z,94612.22
2023-03-05T06:14:44.193Z,94612.22
2023-03-05T06:17:12.927Z,94611.38
2023-03-05T06:19:41.404Z,94609.09
2023-03-05T06:22:07.972Z,94604.63
2023-03-05T06:24:34.533Z,94606.78
2023-03-05T06:27:01.133Z,94606.78
2023-03-05T06:29:27.704Z,94603.47
2023-03-05T06:31:54.237Z,94605.66
2023-03-05T06:34:20.836Z,94601.19
2023-03-05T06:36:47.482Z,94604.09
2023-03-05T06:39:14.045Z,94604.50
2023-03-05T06:41:40.768Z,94597.03
2023-03-05T06:44:07.367Z,94595.88
2023-03-05T06:46:37.387Z,94602.53
2023-03-05T06:49:04.546Z,94599.09
2023-03-05T06:51:34.180Z,94598.38
2023-03-05T06:54:03.732Z,94600.25
2023-03-05T06:56:30.591Z,94601.41
2023-03-05T06:58:57.501Z,94609.28
2023-03-05T07:01:24.210Z,94609.22
2023-03-05T07:03:55.346Z,94600.84
2023-03-05T07:06:22.577Z,94609.97
2023-03-05T07:08:49.238Z,94609.75
2023-03-05T07:11:19.725Z,94607.16
2023-03-05T07:13:49.740Z,94600.56
2023-03-05T07:16:24.794Z,94602.47
2023-03-05T07:18:52.183Z,94603.78
2023-03-05T07:21:21.855Z,94602.94
2023-03-05T07:23:49.317Z,94606.84
2023-03-05T07:26:16.633Z,94606.34
2023-03-05T07:28:43.883Z,94603.44
2023-03-05T07:31:19.047Z,94598.44
2023-03-05T07:33:47.549Z,94595.75
2023-03-05T07:36:14.257Z,94597.75
2023-03-05T07:38:41.130Z,94594.03
2023-03-05T07:41:13.544Z,94595.06
2023-03-05T07:43:40.962Z,94590.88
2023-03-05T07:46:10.133Z,94586.56
2023-03-05T07:48:37.399Z,94588.31
2023-03-05T07:51:16.014Z,94584.47
2023-03-05T07:53:44.174Z,94582.59
2023-03-05T07:56:11.286Z,94578.63
2023-03-05T07:58:38.215Z,94584.41
2023-03-05T08:01:13.439Z,94574.09
2023-03-05T08:03:41.564Z,94569.38
2023-03-05T08:06:09.016Z,94568.97
2023-03-05T08:08:36.262Z,94573.16
2023-03-05T08:11:05.447Z,94577.50
2023-03-05T08:13:32.194Z,94576.06
2023-03-05T08:15:58.998Z,94572.19
2023-03-05T08:18:25.828Z,94566.91
2023-03-05T08:20:52.449Z,94573.88
2023-03-05T08:23:19.087Z,94563.69
2023-03-05T08:25:45.652Z,94561.28
2023-03-05T08:28:12.198Z,94563.03
2023-03-05T08:30:41.114Z,94565.94
2023-03-05T08:33:07.807Z,94561.22
2023-03-05T08:35:34.492Z,94566.03
2023-03-05T08:38:01.110Z,94557.69
2023-03-05T08:40:27.999Z,94560.28
2023-03-05T08:42:54.761Z,94564.31
2023-03-05T08:45:21.616Z,94563.47
2023-03-05T08:47:48.202Z,94567.91
2023-03-05T08:50:15.112Z,94555.63
2023-03-05T08:52:41.703Z,94552.09
2023-03-05T08:55:08.781Z,94549.94
2023-03-05T08:57:35.669Z,94551.09
2023-03-05T09:00:02.465Z,94556.03
2023-03-05T09:02:29.393Z,94556.00
2023-03-05T09:04:56.022Z,94557.84
2023-03-05T09:07:22.634Z,94545.19
2023-03-05T09:09:49.353Z,94550.69
2023-03-05T09:12:16.050Z,94546.78
2023-03-05T09:14:43.049Z,94551.28
2023-03-05T09:17:09.633Z,94538.84
2023-03-05T09:19:36.283Z,94546.41
2023-03-05T09:22:03.094Z,94541.00
2023-03-05T09:24:29.648Z,94543.22
2023-03-05T09:27:00.475Z,94539.41
2023-03-05T09:29:28.144Z,94537.84
2023-03-05T09:31:55.651Z,94541.94
2023-03-05T09:34:23.948Z,94532.50
2023-03-05T09:36:50.582Z,94535.09
2023-03-05T09:39:17.169Z,94532.44
2023-03-05T09:41:52.835Z,94533.06
2023-03-05T09:44:30.795Z,94533.66
2023-03-05T09:47:08.341Z,94536.63
2023-03-05T09:49:56.334Z,94531.97
2023-03-05T09:52:35.100Z,94529.09
2023-03-05T09:55:03.193Z,94529.78
2023-03-05T09:57:39.338Z,94526.31
2023-03-05T10:00:23.302Z,94532.41
2023-03-05T10:02:55.753Z,94531.31
2023-03-05T10:05:25.373Z,94521.63
2023-03-05T10:07:59.602Z,94527.53
2023-03-05T10:10:33.650Z,94522.63
2023-03-05T10:13:05.382Z,94519.31
2023-03-05T10:16:11.262Z,94511.84
2023-03-05T10:19:07.782Z,94508.00
2023-03-05T10:21:47.639Z,94508.03
2023-03-05T10:24:39.872Z,94507.78
2023-03-05T10:27:19.175Z,94514.47
2023-03-05T10:30:20.373Z,94507.53
2023-03-05T10:33:07.320Z,94501.38
2023-03-05T10:35:54.223Z,94506.97
2023-03-05T10:39:00.104Z,94508.00
2023-03-05T10:41:45.238Z,94502.94
2023-03-05T10:44:20.125Z,94502.63
2023-03-05T10:46:49.479Z,94499.47
2023-03-05T10:49:30.347Z,94500.47
2023-03-05T10:52:13.352Z,94487.22
2023-03-05T10:54:42.869Z,94476.25
2023-03-05T10:57:19.005Z,94475.94
2023-03-05T10:59:51.756Z,94472.22
2023-03-05T11:02:20.571Z,94471.38
2023-03-05T11:04:50.621Z,94462.28
2023-03-05T11:07:17.410Z,94460.81
2023-03-05T11:10:03.415Z,94458.06
2023-03-05T11:12:40.729Z,94454.63
2023-03-05T11:15:10.323Z,94444.97
2023-03-05T11:17:44.828Z,94454.16
2023-03-05T11:20:26.699Z,94450.59
2023-03-05T11:23:23.968Z,94452.56
2023-03-05T11:25:57.777Z,94449.78
2023-03-05T11:28:35.355Z,94439.22
2023-03-05T11:31:20.317Z,94441.66
2023-03-05T11:33:55.984Z,94436.84
2023-03-05T11:36:36.732Z,94427.53
2023-03-05T11:39:06.571Z,94431.09
2023-03-05T11:41:36.183Z,94423.75
2023-03-05T11:44:06.094Z,94420.91
2023-03-05T11:46:41.207Z,94412.38
2023-03-05T11:49:11.653Z,94420.88
2023-03-05T11:51:44.017Z,94414.72
2023-03-05T11:54:16.232Z,94415.31
2023-03-05T11:56:44.158Z,94402.94
2023-03-05T11:59:18.659Z,94407.50
2023-03-05T12:01:52.258Z,94399.69
2023-03-05T12:04:20.156Z,94386.28
2023-03-05T12:06:54.074Z,94386.94
2023-03-05T12:09:40.905Z,94385.44
2023-03-05T12:12:38.671Z,94385.84
2023-03-05T12:15:45.722Z,94379.88
2023-03-05T12:18:21.122Z,94377.69
2023-03-05T12:21:33.007Z,94368.38
2023-03-05T12:24:02.196Z,94374.78
2023-03-05T12:26:53.261Z,94362.84
2023-03-05T12:29:44.061Z,94355.59
2023-03-05T12:32:23.093Z,94362.22
2023-03-05T12:34:57.983Z,94354.47
2023-03-05T12:37:24.628Z,94352.53
2023-03-05T12:40:08.757Z,94349.78
2023-03-05T12:42:35.505Z,94350.50
2023-03-05T12:45:19.179Z,94343.44
2023-03-05T12:48:12.157Z,94342.16
2023-03-05T12:50:38.839Z,94335.00
2023-03-05T12:53:11.156Z,94332.69
2023-03-05T12:55:45.749Z,94332.59
2023-03-05T12:58:34.011Z,94326.22
2023-03-05T13:01:38.328Z,94319.75
2023-03-05T13:04:11.801Z,94331.88
2023-03-05T13:06:39.543Z,94323.63
2023-03-05T13:09:24.634Z,94317.34
2023-03-05T13:11:54.146Z,94315.84
2023-03-05T13:14:42.474Z,94310.56
2023-03-05T13:17:31.340Z,94313.47
2023-03-05T13:19:59.224Z,94302.00
2023-03-05T13:22:26.576Z,94298.88
2023-03-05T13:25:16.687Z,94301.06
2023-03-05T13:27:43.649Z,94304.56
2023-03-05T13:30:28.125Z,94300.94
2023-03-05T13:33:05.338Z,94312.66
2023-03-05T13:35:32.788Z,94303.03
2023-03-05T13:37:59.785Z,94295.66
2023-03-05T13:40:31.769Z,94294.91
2023-03-05T13:43:18.201Z,94304.59
2023-03-05T13:45:55.071Z,94293.69
2023-03-05T13:48:21.945Z,94290.25
2023-03-05T13:50:56.622Z,94286.06
2023-03-05T13:53:33.778Z,94287.94
2023-03-05T13:56:06.040Z,94290.16
2023-03-05T13:58:56.292Z,94290.97
2023-03-05T14:01:32.305Z,94280.59
2023-03-05T14:04:35.972Z,94279.84
2023-03-05T14:07:37.693Z,94278.41
2023-03-05T14:10:05.667Z,94280.22
2023-03-05T14:12:40.942Z,94277.41
2023-03-05T14:15:20.528Z,94274.19
2023-03-05T14:17:47.945Z,94259.44
2023-03-05T14:20:28.724Z,94255.63
2023-03-05T14:23:01.329Z,94257.72
2023-03-05T14:25:36.364Z,94252.53
2023-03-05T14:28:06.504Z,94250.41
2023-03-05T14:30:36.309Z,94255.56
2023-03-05T14:33:03.768Z,94251.88
2023-03-05T14:35:30.938Z,94244.78
2023-03-05T14:37:59.818Z,94244.34
2023-03-05T14:40:36.306Z,94251.00
2023-03-05T14:43:07.002Z,94243.28
2023-03-05T14:45:39.021Z,94241.22
2023-03-05T14:48:07.719Z,94234.66
2023-03-05T14:50:34.291Z,94236.66
2023-03-05T14:53:10.370Z,94234.06
2023-03-05T14:55:38.421Z,94225.16
2023-03-05T14:58:12.631Z,94228.28
2023-03-05T15:00:39.309Z,94224.19
2023-03-05T15:03:06.021Z,94220.63
2023-03-05T15:05:33.203Z,94218.63
2023-03-05T15:08:00.698Z,94223.50
2023-03-05T15:10:27.367Z,94215.94
2023-03-05T15:12:54.014Z,94223.03
2023-03-05T15:15:22.705Z,94216.72
2023-03-05T15:17:57.568Z,94213.78
2023-03-05T15:20:27.181Z,94207.16
2023-03-05T15:22:53.999Z,94204.47
2023-03-05T15:25:22.421Z,94202.22
2023-03-05T15:27:50.907Z,94202.13
2023-03-05T15:30:26.540Z,94196.84
2023-03-05T15:32:54.920Z,94196.03
2023-03-05T15:35:22.582Z,94200.97
2023-03-05T15:37:49.650Z,94201.53
2023-03-05T15:40:16.590Z,94189.31
2023-03-05T15:42:43.371Z,94187.59
2023-03-05T15:45:10.387Z,94177.75
2023-03-05T15:47:36.973Z,94184.28
2023-03-05T15:50:03.752Z,94170.22
2023-03-05T15:52:30.477Z,94168.44
2023-03-05T15:54:57.033Z,94169.78
2023-03-05T15:57:24.037Z,94172.66
2023-03-05T15:59:50.646Z,94172.38
2023-03-05T16:02:17.542Z,94171.38
2023-03-05T16:04:44.439Z,94164.94
2023-03-05T16:07:13.558Z,94167.72
2023-03-05T16:09:48.141Z,94172.72
2023-03-05T16:12:20.176Z,94172.00
2023-03-05T16:14:47.613Z,94170.47
2023-03-05T16:17:15.796Z,94160.78
2023-03-05T16:19:46.948Z,94160.63
2023-03-05T16:22:13.739Z,94167.22
2023-03-05T16:24:40.505Z,94161.34
2023-03-05T16:27:07.132Z,94157.84
2023-03-05T16:29:33.935Z,94165.72
2023-03-05T16:32:02.581Z,94158.47
2023-03-05T16:34:29.297Z,94155.44
2023-03-05T16:36:56.077Z,94160.09
2023-03-05T16:39:23.043Z,94152.91
2023-03-05T16:41:50.472Z,94154.16
2023-03-05T16:44:17.023Z,94155.88
2023-03-05T16:46:49.321Z,94150.03
2023-03-05T16:49:16.616Z,94152.00
2023-03-05T16:51:43.226Z,94153.91
2023-03-05T16:54:10.268Z,94148.25
2023-03-05T16:56:37.103Z,94144.22
2023-03-05T16:59:04.416Z,94146.41
2023-03-05T17:01:31.315Z,94149.41
2023-03-05T17:03:59.417Z,94146.28
2023-03-05T17:06:29.142Z,94141.06
2023-03-05T17:08:56.364Z,94136.78
2023-03-05T17:11:23.287Z,94135.34
2023-03-05T17:13:49.913Z,94132.22
2023-03-05T17:16:19.140Z,94129.91
2023-03-05T17:18:45.932Z,94129.91
2023-03-05T17:21:12.796Z,94137.16
2023-03-05T17:23:40.040Z,94137.88
2023-03-05T17:26:09.251Z,94133.38
2023-03-05T17:28:36.090Z,94131.22
2023-03-05T17:31:03.971Z,94131.84
2023-03-05T17:33:34.892Z,94135.38
2023-03-05T17:36:02.296Z,94128.53
2023-03-05T17:38:28.993Z,94136.63
2023-03-05T17:40:55.805Z,94131.16
2023-03-05T17:43:22.751Z,94128.03
2023-03-05T17:45:49.396Z,94130.88
2023-03-05T17:48:16.752Z,94124.53
2023-03-05T17:50:45.233Z,94124.06
2023-03-05T17:53:12.414Z,94137.06
2023-03-05T17:55:39.994Z,94127.13
2023-03-05T17:58:07.209Z,94127.84
2023-03-05T18:00:35.038Z,94129.00
2023-03-05T18:03:02.305Z,94129.72
2023-03-05T18:05:29.658Z,94125.00
2023-03-05T18:07:56.504Z,94125.69
2023-03-05T18:10:26.745Z,94118.25
2023-03-05T18:12:54.672Z,94124.44
2023-03-05T18:15:23.314Z,94117.09
2023-03-05T18:17:50.532Z,94112.34
2023-03-05T18:20:30.710Z,94114.22
2023-03-05T18:22:59.035Z,94119.41
2023-03-05T18:25:32.093Z,94108.75
2023-03-05T18:27:59.917Z,94111.34
2023-03-05T18:30:27.516Z,94111.81
2023-03-05T18:32:55.362Z,94107.06
2023-03-05T18:35:22.963Z,94108.22
2023-03-05T18:37:49.673Z,94102.50
2023-03-05T18:40:19.797Z,94099.91
2023-03-05T18:42:46.597Z,94103.66
2023-03-05T18:45:23.224Z,94107.00
2023-03-05T18:47:54.164Z,94096.59
2023-03-05T18:50:22.769Z,94094.44
2023-03-05T18:52:49.601Z,94098.19
2023-03-05T18:55:22.619Z,94095.59
2023-03-05T18:57:49.977Z,94093.47
2023-03-05T19:00:19.570Z,94098.66
2023-03-05T19:02:46.538Z,94093.91
2023-03-05T19:05:14.968Z,94083.22
2023-03-05T19:07:41.828Z,94087.00
2023-03-05T19:10:10.838Z,94084.13
2023-03-05T19:12:46.301Z,94078.69
2023-03-05T19:15:13.653Z,94082.44
2023-03-05T19:17:40.420Z,94087.63
2023-03-05T19:20:07.992Z,94076.25
2023-03-05T19:22:35.016Z,94075.44
2023-03-05T19:25:01.950Z,94077.88
2023-03-05T19:27:28.722Z,94083.22
2023-03-05T19:29:55.823Z,94077.31
2023-03-05T19:32:23.739Z,94082.97
2023-03-05T19:34:50.747Z,94070.44
2023-03-05T19:37:19.249Z,94070.44
2023-03-05T19:39:46.013Z,94068.03
2023-03-05T19:42:12.866Z,94069.91
2023-03-05T19:44:39.754Z,94075.34
2023-03-05T19:47:06.780Z,94063.53
2023-03-05T19:49:33.679Z,94073.22
2023-03-05T19:52:00.347Z,94070.06
2023-03-05T19:54:27.124Z,94063.72
2023-03-05T19:56:55.820Z,94063.47
2023-03-05T19:59:23.166Z,94062.75
2023-03-05T20:01:50.161Z,94065.34
2023-03-05T20:04:20.036Z,94059.88
2023-03-05T20:06:47.097Z,94054.69
2023-03-05T20:09:14.930Z,94059.88
2023-03-05T20:11:42.031Z,94059.59
2023-03-05T20:14:09.777Z,94062.19
2023-03-05T20:16:38.163Z,94054.41
2023-03-05T20:19:07.158Z,94052.25
2023-03-05T20:21:38.550Z,94056.72
2023-03-05T20:24:09.748Z,94054.13
2023-03-05T20:26:38.908Z,94048.66
2023-03-05T20:29:06.475Z,94054.78
2023-03-05T20:31:35.382Z,94047.69
2023-03-05T20:34:02.115Z,94042.94
2023-03-05T20:36:28.679Z,94041.81
2023-03-05T20:38:55.886Z,94039.66
2023-03-05T20:41:22.841Z,94046.44
2023-03-05T20:43:51.279Z,94037.22
2023-03-05T20:46:22.389Z,94040.28
2023-03-05T20:48:51.571Z,94042.13
2023-03-05T20:51:29.865Z,94031.03
2023-03-05T20:54:02.447Z,94017.34
2023-03-05T20:56:32.351Z,94025.56
2023-03-05T20:59:01.252Z,94034.09
2023-03-05T21:01:28.294Z,94024.56
2023-03-05T21:03:57.190Z,94019.13
2023-03-05T21:06:25.140Z,94014.38
2023-03-05T21:08:52.301Z,94024.31
2023-03-05T21:11:19.684Z,94021.72
2023-03-05T21:13:46.883Z,94011.78
2023-03-05T21:16:19.431Z,94011.78
2023-03-05T21:18:46.220Z,94009.66
2023-03-05T21:21:12.950Z,94008.47
2023-03-05T21:23:39.542Z,94014.56
2023-03-05T21:26:06.486Z,94016.47
2023-03-05T21:28:33.533Z,94008.84
2023-03-05T21:31:07.248Z,94002.50
2023-03-05T21:33:33.947Z,94000.06
2023-03-05T21:36:00.706Z,93998.88
2023-03-05T21:38:29.900Z,93996.03
2023-03-05T21:40:58.685Z,93992.72
2023-03-05T21:43:25.920Z,93982.06
2023-03-05T21:45:54.143Z,93999.78
2023-03-05T21:48:22.120Z,93988.16
2023-03-05T21:50:49.329Z,93991.91
2023-03-05T21:53:16.906Z,93984.84
2023-03-05T21:56:01.599Z,93984.13
2023-03-05T21:58:28.629Z,93978.19
2023-03-05T22:00:55.254Z,93974.66
2023-03-05T22:03:21.794Z,93976.69
2023-03-05T22:05:48.355Z,93972.97
2023-03-05T22:08:14.868Z,93970.63
2023-03-05T22:10:42.208Z,93973.81
2023-03-05T22:13:12.782Z,93964.47
2023-03-05T22:15:46.615Z,93956.69
2023-03-05T22:18:16.106Z,93962.03
2023-03-05T22:20:43.159Z,93947.59
2023-03-05T22:23:10.541Z,93959.44
2023-03-05T22:25:37.228Z,93955.41
2023-03-05T22:28:04.240Z,93954.69
2023-03-05T22:30:32.087Z,93961.03
2023-03-05T22:33:00.666Z,93950.66
2023-03-05T22:35:27.892Z,93948.06
2023-03-05T22:37:54.515Z,93943.31
2023-03-05T22:40:22.068Z,93948.94
2023-03-05T22:42:49.111Z,93935.25
2023-03-05T22:45:18.200Z,93945.91
2023-03-05T22:47:49.727Z,93942.34
2023-03-05T22:50:17.761Z,93941.63
2023-03-05T22:52:44.390Z,93943.50
2023-03-05T22:55:13.175Z,93936.44
2023-03-05T22:57:39.969Z,93937.34
2023-03-05T23:00:09.325Z,93931.44
2023-03-05T23:02:36.132Z,93933.31
2023-03-05T23:05:03.545Z,93930.00
2023-03-05T23:07:33.553Z,93918.19
2023-03-05T23:10:03.166Z,93925.97
2023-03-05T23:12:32.289Z,93922.25
2023-03-05T23:15:00.909Z,93916.06
2023-03-05T23:17:27.885Z,93919.09
2023-03-05T23:19:54.468Z,93920.97
2023-03-05T23:22:21.313Z,93916.22
2023-03-05T23:24:48.202Z,93914.06
2023-03-05T23:27:17.065Z,93922.56
2023-03-05T23:30:17.376Z,93905.31
2023-03-05T23:32:48.243Z,93907.47
2023-03-05T23:35:17.307Z,93907.91
2023-03-05T23:37:44.204Z,93900.56
2023-03-05T23:40:20.282Z,93905.72
2023-03-05T23:42:47.279Z,93903.16
2023-03-05T23:45:16.140Z,93899.13
2023-03-05T23:47:43.284Z,93904.03
2023-03-05T23:50:17.024Z,93901.19
2023-03-05T23:52:44.342Z,93891.00
2023-03-05T23:55:16.564Z,93895.75
2023-03-05T23:57:43.726Z,93888.41
